»·PEaware :: N3552D KBUR-KSBD

N3552D :: KBUR-KSBD

FLIGHT INFORMATION

Flight Status: Arrived
Operator: Privately registered:
United States
More flights under this callsign
Pilot: Mike C. (16705)
Aircraft: CESSNA 182 SKYLANE
(C182)
More flights by this aircraft type
Origin: KBUR Bob Hope-Burbank
United States
Destination: KSBD San Bernardino Intl
United States
More flights between these airports :: More routes between these airports
Route: ELMOO8 ELMOO V186 PDZ
File this flight plan on PilotEdge
Remarks: DOF / 180903 REG / N3552D PER / A RMK / TCAS SIMBRIEF
Altitude:
(Current/Filed)
5,000ft
Speed:
(Current/Filed)
122kts
Departed: 03-Sep-18 10:14 AM
Arrived: 03-Sep-18 10:47 AM
Distance/Time
Traveled:
56nm/0:33
Distance/Time
To Go:
Arrived

Flight Plot

Page will automatically refresh every two minutes.


Map Options




Map Legend


Flown Route
Filed Route
Departure Airport
Arrival Airport
Navaid (VOR, NDB)
Fix

Horizontal Profiles

Position Reports

Time Latitude Longitude Heading Altitude Ground
Speed
03-Sep-18 09:58 34.196206 -118.368470 0 724ft 0kts
03-Sep-18 09:59 34.196209 -118.368470 0 724ft 0kts
03-Sep-18 10:00 34.196216 -118.368469 0 724ft 0kts
03-Sep-18 10:01 34.196221 -118.368469 0 724ft 0kts
03-Sep-18 10:02 34.196239 -118.368469 0 724ft 0kts
03-Sep-18 10:03 34.196262 -118.368469 0 724ft 0kts
03-Sep-18 10:04 34.196278 -118.368469 0 724ft 0kts
03-Sep-18 10:05 34.196282 -118.368469 0 724ft 0kts
03-Sep-18 10:06 34.196287 -118.368469 0 724ft 0kts
03-Sep-18 10:07 34.196289 -118.368469 0 724ft 0kts
03-Sep-18 10:08 34.196292 -118.368468 0 724ft 0kts
03-Sep-18 10:09 34.196294 -118.368468 0 724ft 0kts
03-Sep-18 10:10 34.197067 -118.368988 338 724ft 3kts
03-Sep-18 10:11 34.197112 -118.369006 342 724ft 0kts
03-Sep-18 10:12 34.197117 -118.369008 342 724ft 0kts
03-Sep-18 10:13 34.197119 -118.369009 342 724ft 0kts
03-Sep-18 10:14 34.197670 -118.369100 356 724ft 8kts
03-Sep-18 10:15 34.197848 -118.350411 84 1045ft 87kts
03-Sep-18 10:16 34.187245 -118.326634 134 2069ft 85kts
03-Sep-18 10:17 34.170759 -118.306559 136 3058ft 81kts
03-Sep-18 10:18 34.160231 -118.285286 108 3946ft 73kts
03-Sep-18 10:19 34.150555 -118.253452 109 4492ft 121kts
03-Sep-18 10:20 34.138399 -118.213195 108 4931ft 133kts
03-Sep-18 10:21 34.125597 -118.170865 109 4954ft 135kts
03-Sep-18 10:22 34.112345 -118.127010 109 4950ft 140kts
03-Sep-18 10:23 34.099419 -118.084292 109 4947ft 141kts
03-Sep-18 10:24 34.086618 -118.042550 109 4957ft 128kts
03-Sep-18 10:25 34.074041 -118.001616 109 4961ft 131kts
03-Sep-18 10:26 34.060574 -117.959340 111 4960ft 137kts
03-Sep-18 10:27 34.046696 -117.917205 110 4959ft 134kts
03-Sep-18 10:28 34.032567 -117.874357 111 4964ft 138kts
03-Sep-18 10:29 34.018943 -117.833099 111 4997ft 129kts
03-Sep-18 10:30 34.005403 -117.792128 111 5013ft 133kts
03-Sep-18 10:31 33.991998 -117.751621 111 5010ft 129kts
03-Sep-18 10:32 33.978582 -117.711124 111 5008ft 130kts
03-Sep-18 10:33 33.964340 -117.668206 111 4999ft 141kts
03-Sep-18 10:34 33.944042 -117.628465 104 4998ft 142kts
03-Sep-18 10:35 33.935542 -117.583081 108 4989ft 137kts
03-Sep-18 10:36 33.923520 -117.539167 84 4974ft 139kts
03-Sep-18 10:37 33.955648 -117.512086 23 4508ft 145kts
03-Sep-18 10:38 33.990986 -117.495067 22 3977ft 132kts
03-Sep-18 10:39 34.024603 -117.482100 4 3918ft 124kts
03-Sep-18 10:40 34.029173 -117.453545 94 3915ft 99kts
03-Sep-18 10:41 34.040157 -117.423970 72 3909ft 97kts
03-Sep-18 10:42 34.049411 -117.391673 71 3546ft 111kts
03-Sep-18 10:43 34.059602 -117.356819 72 2971ft 102kts
03-Sep-18 10:44 34.068779 -117.324868 71 2423ft 95kts
03-Sep-18 10:45 34.077104 -117.296932 71 1954ft 86kts
03-Sep-18 10:46 34.084837 -117.271337 74 1531ft 79kts
03-Sep-18 10:47 34.092046 -117.246272 69 1125ft 65kts
03-Sep-18 10:48 34.094260 -117.241027 27 1122ft 0kts

Navigation Log

Ident Type
Flight plan parsing failed, navigation log unavailable